Time;durP1;ratioP1;P1;durP2;ratioP2;P2;SDS_P1;SDS_P2;PMS_P1;PMS_P2;Temp;Humidity;BMP_temperature;BMP_pressure;BME280_temperature;BME280_humidity;BME280_pressure;Samples;Min_cycle;Max_cycle;Signal;HPM_P1;HPM_P2
2022/11/10 07:34:01;;;;;;;9.90;4.43;;;10.20;99.90;;;;;;10704367;23;20061;-76
2022/11/10 07:39:03;;;;;;;8.93;4.35;;;10.30;99.90;;;;;;10135104;29;20479;-73
2022/11/10 07:44:05;;;;;;;7.07;4.82;;;10.40;99.90;;;;;;10134990;29;20505;-75
2022/11/10 07:49:08;;;;;;;10.05;5.45;;;10.40;99.90;;;;;;10172715;29;20079;-76
2022/11/10 07:54:10;;;;;;;9.23;4.72;;;10.50;99.90;;;;;;10173933;29;20158;-76
2022/11/10 07:59:12;;;;;;;18.08;4.95;;;10.60;99.90;;;;;;10176007;29;20517;-76
2022/11/10 08:04:15;;;;;;;11.40;4.28;;;10.60;99.90;;;;;;10181672;29;20072;-75
2022/11/10 08:09:17;;;;;;;8.40;3.80;;;10.50;99.90;;;;;;10181212;29;20119;-76
2022/11/10 08:14:19;;;;;;;8.73;4.30;;;10.60;99.90;;;;;;10165230;29;20052;-75
2022/11/10 08:19:22;;;;;;;8.05;3.90;;;10.70;99.90;;;;;;10142011;29;20112;-74
2022/11/10 08:24:24;;;;;;;9.00;3.92;;;10.70;99.90;;;;;;10142315;29;20475;-76
2022/11/10 08:29:26;;;;;;;6.63;3.58;;;10.70;99.90;;;;;;10160222;29;20048;-77
2022/11/10 08:34:30;;;;;;;11.23;4.15;;;10.80;99.90;;;;;;10163375;29;20088;-75
2022/11/10 08:39:32;;;;;;;7.22;3.95;;;10.80;99.90;;;;;;10168317;29;20162;-79
2022/11/10 08:44:34;;;;;;;7.55;3.60;;;11.00;99.90;;;;;;10180288;29;20048;-79
2022/11/10 08:49:37;;;;;;;9.75;4.32;;;11.10;99.90;;;;;;10179759;29;20131;-79
2022/11/10 08:54:39;;;;;;;7.25;3.47;;;11.10;99.90;;;;;;10179798;29;20374;-77
2022/11/10 08:59:42;;;;;;;9.77;3.65;;;11.20;99.90;;;;;;10179866;29;20514;-76
2022/11/10 09:04:45;;;;;;;8.57;3.35;;;11.30;99.90;;;;;;10180171;29;20079;-78
2022/11/10 09:09:47;;;;;;;7.00;3.10;;;11.30;99.90;;;;;;10179538;29;20044;-74
2022/11/10 09:14:49;;;;;;;8.40;3.40;;;11.50;99.90;;;;;;10183170;29;20052;-75
2022/11/10 09:19:52;;;;;;;7.00;3.00;;;11.60;99.90;;;;;;10184230;29;20109;-75
2022/11/10 09:24:54;;;;;;;8.05;2.70;;;11.50;99.90;;;;;;10178664;29;20056;-76
2022/11/10 09:29:56;;;;;;;8.57;3.17;;;11.60;99.90;;;;;;10180022;29;20056;-75
2022/11/10 09:34:59;;;;;;;5.55;2.40;;;11.60;99.90;;;;;;10178889;29;20064;-76
2022/11/10 09:40:01;;;;;;;8.82;2.63;;;11.70;99.90;;;;;;10178568;29;20056;-75
2022/11/10 09:45:09;;;;;;;6.85;2.53;;;11.70;99.90;;;;;;10177975;29;20044;-75
2022/11/10 09:50:22;;;;;;;5.47;2.30;;;11.80;99.90;;;;;;10178852;29;20054;-73
2022/11/10 09:55:33;;;;;;;7.82;3.13;;;11.90;99.90;;;;;;10178500;29;20131;-74
2022/11/10 10:00:36;;;;;;;7.28;2.70;;;11.90;99.90;;;;;;10177207;29;20414;-75
2022/11/10 10:06:02;;;;;;;6.03;2.45;;;12.00;99.90;;;;;;10177175;29;20096;-74
2022/11/10 10:11:21;;;;;;;8.65;2.80;;;12.00;99.90;;;;;;10176007;29;20135;-74
2022/11/10 10:16:33;;;;;;;6.97;2.30;;;12.10;99.90;;;;;;10173934;29;20450;-76
2022/11/10 10:21:45;;;;;;;15.38;6.43;;;12.20;99.90;;;;;;10170962;29;20142;-74
2022/11/10 10:26:53;;;;;;;8.38;3.10;;;12.20;99.90;;;;;;10166404;29;20048;-76
2022/11/10 10:31:57;;;;;;;5.27;2.10;;;12.30;99.90;;;;;;10171819;29;20499;-75
2022/11/10 10:37:00;;;;;;;6.43;1.90;;;12.30;99.90;;;;;;10170980;29;20319;-73
2022/11/10 10:42:06;;;;;;;4.63;1.38;;;12.40;99.90;;;;;;10171152;29;20467;-74
2022/11/10 10:47:08;;;;;;;7.60;1.77;;;12.50;99.90;;;;;;10168505;29;20544;-75
2022/11/10 10:52:15;;;;;;;6.25;1.70;;;12.60;99.90;;;;;;10168896;29;20467;-74
2022/11/10 10:57:24;;;;;;;7.63;1.60;;;12.70;99.90;;;;;;10171182;29;20052;-74
2022/11/10 11:02:29;;;;;;;6.13;1.55;;;12.70;99.90;;;;;;10166499;29;20052;-75
2022/11/10 11:07:33;;;;;;;4.43;1.35;;;12.80;99.90;;;;;;10170782;29;20115;-76
2022/11/10 11:12:34;;;;;;;12.75;6.03;;;12.90;99.90;;;;;;10170369;29;20091;-79
2022/11/10 11:17:36;;;;;;;6.47;2.20;;;13.10;99.90;;;;;;10134739;29;20079;-75
2022/11/10 11:22:51;;;;;;;3.63;1.10;;;13.20;99.90;;;;;;10129225;29;20109;-80
2022/11/10 11:28:05;;;;;;;4.82;1.17;;;13.30;99.90;;;;;;10132031;29;20111;-75
2022/11/10 11:33:28;;;;;;;4.00;1.00;;;13.10;99.90;;;;;;10131575;29;20091;-76
2022/11/10 11:38:41;;;;;;;6.72;1.15;;;13.40;99.90;;;;;;10130711;29;20049;-76
2022/11/10 11:44:15;;;;;;;5.38;0.93;;;13.20;99.90;;;;;;10132030;29;20053;-76
2022/11/10 11:49:58;;;;;;;5.10;1.05;;;13.50;99.90;;;;;;10138856;29;20063;-74
2022/11/10 11:55:32;;;;;;;5.20;1.60;;;13.50;99.90;;;;;;10177170;29;20052;-74
2022/11/10 12:00:42;;;;;;;3.80;1.10;;;13.90;99.90;;;;;;10134486;29;20463;-75
2022/11/10 12:06:10;;;;;;;5.70;1.30;;;14.00;99.90;;;;;;10131694;29;20060;-76
2022/11/10 12:11:23;;;;;;;4.85;1.40;;;14.40;99.90;;;;;;10130754;29;20056;-74
2022/11/10 12:16:29;;;;;;;4.95;1.20;;;14.80;99.90;;;;;;10130323;29;20053;-75
2022/11/10 12:21:43;;;;;;;5.85;1.20;;;15.20;99.90;;;;;;10127921;29;20048;-74
2022/11/10 12:26:55;;;;;;;4.68;1.30;;;15.50;98.20;;;;;;10131952;29;20079;-77
2022/11/10 12:32:03;;;;;;;3.08;1.08;;;15.50;98.50;;;;;;10130016;29;20120;-77
2022/11/10 12:37:13;;;;;;;3.80;1.10;;;16.00;97.60;;;;;;10130328;29;20198;-78
2022/11/10 12:42:21;;;;;;;3.45;0.95;;;16.30;96.20;;;;;;10156773;29;20053;-78
2022/11/10 12:47:28;;;;;;;5.07;1.00;;;16.20;94.70;;;;;;10135039;29;20427;-75
2022/11/10 12:52:37;;;;;;;5.47;1.40;;;16.30;96.10;;;;;;10136875;29;20080;-77
2022/11/10 12:57:42;;;;;;;6.95;1.40;;;16.80;95.30;;;;;;10175981;29;20487;-76
2022/11/10 13:02:46;;;;;;;4.50;1.00;;;17.90;94.60;;;;;;10181032;29;20048;-75
2022/11/10 13:07:51;;;;;;;4.13;1.20;;;17.90;92.80;;;;;;10180977;29;20111;-77
2022/11/10 13:13:06;;;;;;;4.85;1.23;;;19.10;91.90;;;;;;10180629;29;20549;-75
2022/11/10 13:18:10;;;;;;;3.85;1.20;;;19.20;88.80;;;;;;10180720;29;20111;-77
2022/11/10 13:23:27;;;;;;;4.25;1.17;;;24.80;73.30;;;;;;10181494;29;20055;-76
2022/11/10 13:29:01;;;;;;;4.13;1.20;;;27.60;60.00;;;;;;10183072;29;20127;-75
2022/11/10 13:34:11;;;;;;;4.03;1.02;;;30.10;52.40;;;;;;10180372;29;20088;-77
2022/11/10 13:39:24;;;;;;;4.78;1.10;;;28.60;52.60;;;;;;10180386;29;20542;-76
2022/11/10 13:44:31;;;;;;;4.25;1.10;;;28.30;48.80;;;;;;10179077;29;20056;-75
2022/11/10 13:49:58;;;;;;;4.18;1.10;;;30.00;48.50;;;;;;10181340;29;20076;-75
2022/11/10 13:55:31;;;;;;;4.57;1.70;;;30.40;47.90;;;;;;10178476;29;20059;-76
2022/11/10 14:00:36;;;;;;;4.97;1.10;;;29.90;47.10;;;;;;10177625;29;20143;-77
2022/11/10 14:06:03;;;;;;;7.40;1.00;;;29.50;47.80;;;;;;10158892;29;20049;-75
2022/11/10 14:11:13;;;;;;;4.00;1.10;;;29.40;47.80;;;;;;10155684;29;20099;-74
2022/11/10 14:16:23;;;;;;;4.07;1.15;;;29.80;47.60;;;;;;10171053;29;20107;-74
2022/11/10 14:21:37;;;;;;;3.08;1.10;;;29.90;47.20;;;;;;10151535;29;20153;-73
2022/11/10 14:26:43;;;;;;;4.50;1.20;;;29.60;46.80;;;;;;10169470;29;20550;-75
2022/11/10 14:31:46;;;;;;;5.88;1.13;;;30.00;46.20;;;;;;10171357;29;20068;-73
2022/11/10 14:36:54;;;;;;;4.63;1.20;;;30.50;45.70;;;;;;10171506;29;20052;-75
2022/11/10 14:41:59;;;;;;;4.22;1.30;;;30.40;44.80;;;;;;10153147;29;20510;-74
2022/11/10 14:47:22;;;;;;;3.80;1.25;;;30.10;45.50;;;;;;10169994;29;20510;-74
2022/11/10 14:52:24;;;;;;;5.22;1.15;;;30.00;45.00;;;;;;10170235;29;20581;-75
2022/11/10 14:57:26;;;;;;;2.88;0.88;;;29.90;45.20;;;;;;10169245;29;20107;-75
2022/11/10 15:02:29;;;;;;;3.28;1.10;;;29.60;45.30;;;;;;10169428;29;20169;-75
2022/11/10 15:07:31;;;;;;;3.15;1.00;;;29.50;45.30;;;;;;10168860;29;20056;-75
2022/11/10 15:12:33;;;;;;;3.83;1.10;;;28.90;46.00;;;;;;10168937;29;20083;-74
2022/11/10 15:17:49;;;;;;;4.00;1.00;;;28.30;46.50;;;;;;10168321;29;20848;-74
2022/11/10 15:22:51;;;;;;;3.65;1.40;;;28.00;47.50;;;;;;10168579;29;20055;-74
2022/11/10 15:27:59;;;;;;;4.55;1.13;;;27.40;49.40;;;;;;10165258;29;20076;-73
2022/11/10 15:33:10;;;;;;;6.10;1.20;;;26.50;50.40;;;;;;10168194;29;20070;-74
2022/11/10 15:38:29;;;;;;;4.93;1.20;;;25.60;51.10;;;;;;10168520;29;20056;-75
2022/11/10 15:43:31;;;;;;;4.55;1.48;;;23.80;53.90;;;;;;10167397;29;20076;-74
2022/11/10 15:48:40;;;;;;;3.90;1.10;;;22.60;56.50;;;;;;10168396;29;20482;-74
2022/11/10 15:53:44;;;;;;;3.38;1.20;;;21.70;57.80;;;;;;10168279;29;20116;-75
2022/11/10 15:58:48;;;;;;;5.72;1.50;;;20.80;59.70;;;;;;10143773;29;20044;-74
2022/11/10 16:03:52;;;;;;;5.60;1.50;;;20.10;64.10;;;;;;10166240;29;20083;-74
2022/11/10 16:08:54;;;;;;;5.32;1.40;;;19.30;67.50;;;;;;10168403;29;20084;-76
2022/11/10 16:13:57;;;;;;;4.43;1.50;;;18.80;70.90;;;;;;10133751;29;20092;-76
2022/11/10 16:19:00;;;;;;;5.15;1.27;;;18.30;72.60;;;;;;10133528;29;20080;-76
2022/11/10 16:24:02;;;;;;;12.80;5.70;;;17.90;74.90;;;;;;10166879;29;20072;-75
2022/11/10 16:29:12;;;;;;;22.13;11.05;;;17.50;76.70;;;;;;10164806;29;20083;-77
2022/11/10 16:34:17;;;;;;;7.05;2.42;;;17.00;78.50;;;;;;10170189;29;20052;-74
2022/11/10 16:39:19;;;;;;;4.32;1.52;;;16.60;79.80;;;;;;10159360;29;20101;-75
2022/11/10 16:44:21;;;;;;;3.75;1.45;;;16.30;82.40;;;;;;10169639;29;20502;-76
2022/11/10 16:49:30;;;;;;;6.10;1.58;;;16.00;85.30;;;;;;10177141;29;20087;-75
2022/11/10 16:54:32;;;;;;;5.28;1.45;;;15.70;88.20;;;;;;10173913;29;20490;-74
2022/11/10 16:59:35;;;;;;;8.55;2.40;;;15.40;90.60;;;;;;10172778;29;20103;-77
2022/11/10 17:04:38;;;;;;;6.40;1.85;;;15.00;92.20;;;;;;10173196;29;20534;-76
2022/11/10 17:09:40;;;;;;;3.45;1.42;;;14.90;93.80;;;;;;10146795;29;20123;-76
2022/11/10 17:14:42;;;;;;;10.73;2.08;;;14.70;95.00;;;;;;10174196;29;20077;-77
2022/11/10 17:19:46;;;;;;;6.85;1.70;;;14.60;95.70;;;;;;10171381;29;20072;-74
2022/11/10 17:24:53;;;;;;;5.43;1.98;;;14.40;96.30;;;;;;10141583;29;20049;-74
2022/11/10 17:29:55;;;;;;;6.38;1.90;;;14.10;97.20;;;;;;10169371;29;20083;-76
2022/11/10 17:34:59;;;;;;;6.05;2.00;;;13.90;98.10;;;;;;10162480;29;20108;-75
2022/11/10 17:40:15;;;;;;;7.72;1.95;;;13.80;98.50;;;;;;10163082;29;20056;-76
2022/11/10 17:45:21;;;;;;;5.28;1.92;;;13.60;98.90;;;;;;10164866;29;20104;-74
2022/11/10 17:50:24;;;;;;;5.40;1.77;;;13.30;99.40;;;;;;10136903;29;20063;-78
2022/11/10 17:55:27;;;;;;;6.20;2.00;;;13.00;99.90;;;;;;10158865;29;20071;-77
2022/11/10 18:00:29;;;;;;;5.95;1.85;;;12.80;99.90;;;;;;10146294;29;20052;-76
2022/11/10 18:05:32;;;;;;;11.35;5.65;;;12.50;99.90;;;;;;10172044;29;20060;-76
2022/11/10 18:10:34;;;;;;;10.68;4.80;;;12.40;99.90;;;;;;10169578;29;20087;-76
2022/11/10 18:15:36;;;;;;;12.10;7.07;;;12.40;99.90;;;;;;10170269;29;20052;-77
2022/11/10 18:20:40;;;;;;;9.10;5.00;;;12.50;99.90;;;;;;10150020;29;20479;-74
2022/11/10 18:25:42;;;;;;;10.25;5.05;;;12.40;99.90;;;;;;10162149;29;20474;-76
2022/11/10 18:30:44;;;;;;;20.25;5.47;;;12.30;99.90;;;;;;10149794;29;20147;-77
2022/11/10 18:35:48;;;;;;;14.07;5.20;;;12.20;99.90;;;;;;10149500;29;20143;-75
2022/11/10 18:40:49;;;;;;;8.30;4.70;;;12.30;99.90;;;;;;10152900;29;20496;-76
2022/11/10 18:45:53;;;;;;;9.10;4.88;;;12.20;99.90;;;;;;10160815;29;20056;-75
2022/11/10 18:50:56;;;;;;;7.85;4.53;;;12.10;99.90;;;;;;10153438;29;20461;-76
2022/11/10 18:55:58;;;;;;;5.95;2.72;;;12.10;99.90;;;;;;10156108;29;20459;-76
2022/11/10 19:01:04;;;;;;;9.00;3.35;;;12.10;99.90;;;;;;10161072;29;20052;-77
2022/11/10 19:06:08;;;;;;;7.90;3.30;;;12.00;99.90;;;;;;10168210;29;20119;-77
2022/11/10 19:11:13;;;;;;;6.90;3.70;;;11.90;99.90;;;;;;10178622;29;20056;-75
2022/11/10 19:16:17;;;;;;;9.15;4.18;;;11.80;99.90;;;;;;10164096;29;20075;-75
2022/11/10 19:21:26;;;;;;;9.32;4.18;;;11.70;99.90;;;;;;10169912;29;20494;-74
2022/11/10 19:26:28;;;;;;;7.57;4.00;;;11.70;99.90;;;;;;10167084;29;20466;-77
2022/11/10 19:31:30;;;;;;;7.68;3.50;;;11.60;99.90;;;;;;10169670;29;20123;-77
2022/11/10 19:36:33;;;;;;;6.68;3.22;;;11.50;99.90;;;;;;10163440;29;20087;-76
2022/11/10 19:41:36;;;;;;;6.85;3.28;;;11.40;99.90;;;;;;10170475;29;20083;-76
2022/11/10 19:46:38;;;;;;;6.13;2.70;;;11.30;99.90;;;;;;10156434;29;20138;-76
2022/11/10 19:51:41;;;;;;;5.63;3.00;;;11.10;99.90;;;;;;10167739;29;20127;-76
2022/11/10 19:56:43;;;;;;;6.40;2.88;;;11.00;99.90;;;;;;10175784;29;20387;-75
2022/11/10 20:01:45;;;;;;;6.90;3.42;;;10.90;99.90;;;;;;10162698;29;20060;-76
2022/11/10 20:08:09;;;;;;;6.93;3.60;;;10.80;99.90;;;;;;10176779;29;20458;-76
2022/11/10 20:12:11;;;;;;;6.43;3.33;;;10.60;99.90;;;;;;10175960;29;20171;-76
2022/11/10 20:17:13;;;;;;;7.32;3.65;;;10.70;99.90;;;;;;10145585;29;20064;-76
2022/11/10 20:22:16;;;;;;;8.07;3.67;;;10.60;99.90;;;;;;10157181;29;20049;-76
2022/11/10 20:27:18;;;;;;;6.45;3.20;;;10.60;99.90;;;;;;10140723;29;20353;-76
2022/11/10 20:32:20;;;;;;;6.45;3.10;;;10.60;99.90;;;;;;10147600;29;20521;-79
2022/11/10 20:37:23;;;;;;;7.30;3.40;;;10.70;99.90;;;;;;10175172;29;20568;-77
2022/11/10 20:42:25;;;;;;;5.50;3.30;;;10.50;99.90;;;;;;10169665;29;20091;-76
2022/11/10 20:47:28;;;;;;;8.90;3.80;;;10.50;99.90;;;;;;10172478;29;20048;-76
2022/11/10 20:52:33;;;;;;;8.85;4.38;;;10.40;99.90;;;;;;10173827;29;20052;-76
2022/11/10 20:57:35;;;;;;;8.77;4.40;;;10.50;99.90;;;;;;10160824;29;20103;-74
2022/11/10 21:02:37;;;;;;;9.18;4.30;;;10.30;99.90;;;;;;10149092;29;20558;-75
2022/11/10 21:07:40;;;;;;;8.55;4.72;;;10.30;99.90;;;;;;10173406;29;20457;-77
2022/11/10 21:12:51;;;;;;;9.32;5.22;;;10.20;99.90;;;;;;10172672;29;20517;-75
2022/11/10 21:17:52;;;;;;;13.45;5.68;;;10.30;99.90;;;;;;10162937;29;20062;-76
2022/11/10 21:22:56;;;;;;;11.63;5.70;;;10.10;99.90;;;;;;10170055;29;20091;-75
2022/11/10 21:27:58;;;;;;;8.98;4.60;;;10.10;99.90;;;;;;10167696;29;20048;-76
2022/11/10 21:32:59;;;;;;;10.57;4.43;;;9.90;99.90;;;;;;10143248;29;20060;-74
2022/11/10 21:38:03;;;;;;;7.72;4.20;;;9.70;99.90;;;;;;10134128;29;20388;-75
2022/11/10 21:43:05;;;;;;;7.80;3.90;;;9.80;99.90;;;;;;10153871;29;20107;-74
2022/11/10 21:48:07;;;;;;;10.38;4.55;;;9.80;99.90;;;;;;10164842;29;20427;-74
2022/11/10 21:53:10;;;;;;;9.73;4.45;;;9.80;99.90;;;;;;10176206;29;20051;-77
2022/11/10 21:58:12;;;;;;;10.38;5.00;;;9.40;99.90;;;;;;10176077;29;20107;-76
2022/11/10 22:03:14;;;;;;;10.15;4.55;;;9.20;99.90;;;;;;10165070;29;20048;-76
2022/11/10 22:08:17;;;;;;;9.68;5.85;;;9.10;99.90;;;;;;10176230;29;20048;-75
2022/11/10 22:18:40;;;;;;;8.93;6.18;;;9.20;99.90;;;;;;10127909;29;20083;-74
2022/11/10 22:29:02;;;;;;;8.35;5.00;;;9.30;99.90;;;;;;10175319;29;20052;-73
2022/11/10 22:34:04;;;;;;;8.95;5.10;;;9.30;99.90;;;;;;10171051;29;20459;-74
2022/11/10 22:39:08;;;;;;;8.43;5.20;;;9.20;99.90;;;;;;10165545;29;20048;-76
2022/11/10 22:44:12;;;;;;;9.55;5.13;;;9.20;99.90;;;;;;10162494;29;20451;-74
2022/11/10 22:49:16;;;;;;;12.88;5.63;;;9.20;99.90;;;;;;10167860;29;20136;-77
2022/11/10 22:54:22;;;;;;;10.52;5.13;;;9.10;99.90;;;;;;10173490;29;20060;-75
2022/11/10 22:59:24;;;;;;;9.20;5.38;;;9.10;99.90;;;;;;10174470;29;20048;-75
